CZ-0131 weather

Želeč Airstrip
South Bohemian Region, Czechia

Public forecast

Using degrees Celsius for public forecast. Weather courtesy of forecast.io.

METAR (pilot weather report)

Closest report is Čáslav Air Base, 46.1 nm (85.4 km) NE. Retrieved 2019/07/20 08:00 UTC (33 minutes ago):

LKCV 200800Z 13004KT 050V170 CAVOK 24/16 Q1016 NOSIG RMK BLU BLU

TAF (pilot weather forecast)

Closest forecast is Čáslav Air Base, 46.1 nm (85.4 km) NE. Retrieved 2019/07/20 06:00 UTC (3 hours ago):

TAF LKCV 200500Z 2006/2106 18006KT CAVOK TEMPO 2020/2103 18015KT 6000 SHRA BKN030TCU PROB30 TEMPO 2021/2100 18016G26KT 4000 TSRA BKN020CB TEMPO 2103/2106 7000 RA BKN040